Time;durP1;ratioP1;P1;durP2;ratioP2;P2;SDS_P1;SDS_P2;PMS_P1;PMS_P2;Temp;Humidity;BMP_temperature;BMP_pressure;BME280_temperature;BME280_humidity;BME280_pressure;Samples;Min_cycle;Max_cycle;Signal;HPM_P1;HPM_P2
2022/08/16 00:04:48;;;;;;;3.08;2.65;;;;;;;;;;21001860;28;20574;-56
2022/08/16 00:14:50;;;;;;;3.85;3.10;;;;;;;;;;21001004;28;20536;-56
2022/08/16 00:24:53;;;;;;;4.50;2.63;;;;;;;;;;20999094;28;20051;-56
2022/08/16 00:34:55;;;;;;;4.57;2.55;;;;;;;;;;20998991;28;20481;-56
2022/08/16 00:45:01;;;;;;;3.83;2.80;;;;;;;;;;20998422;28;20095;-55
2022/08/16 00:55:03;;;;;;;3.00;2.17;;;;;;;;;;20997757;28;20076;-56
2022/08/16 01:05:05;;;;;;;3.03;2.53;;;;;;;;;;20996897;28;20056;-56
2022/08/16 01:15:07;;;;;;;4.00;3.00;;;;;;;;;;20996636;28;20044;-54
2022/08/16 01:25:20;;;;;;;4.35;3.38;;;;;;;;;;20995535;28;20119;-58
2022/08/16 01:35:29;;;;;;;4.57;3.35;;;;;;;;;;20993620;28;20540;-57
2022/08/16 01:45:32;;;;;;;3.75;2.88;;;;;;;;;;20994276;28;20063;-56
2022/08/16 01:55:34;;;;;;;7.57;3.83;;;;;;;;;;20994846;28;20051;-58
2022/08/16 02:05:39;;;;;;;4.22;3.42;;;;;;;;;;20994586;28;20102;-57
2022/08/16 02:15:41;;;;;;;5.47;3.58;;;;;;;;;;20994060;28;20443;-55
2022/08/16 02:25:44;;;;;;;5.07;2.97;;;;;;;;;;20994057;28;20060;-55
2022/08/16 02:35:46;;;;;;;4.47;3.15;;;;;;;;;;20995631;28;20052;-57
2022/08/16 02:45:49;;;;;;;4.55;2.90;;;;;;;;;;20993068;28;20390;-55
2022/08/16 02:55:51;;;;;;;4.07;2.95;;;;;;;;;;21008041;28;20053;-55
2022/08/16 03:05:54;;;;;;;4.65;2.90;;;;;;;;;;21006135;28;20049;-57
2022/08/16 03:15:57;;;;;;;5.28;2.92;;;;;;;;;;21006671;28;20477;-57
2022/08/16 03:25:59;;;;;;;6.30;3.28;;;;;;;;;;21004672;28;20051;-57
2022/08/16 03:36:01;;;;;;;6.63;3.22;;;;;;;;;;21004539;28;20532;-56
2022/08/16 03:46:04;;;;;;;6.15;3.20;;;;;;;;;;21002597;28;20052;-55
2022/08/16 03:56:06;;;;;;;6.50;3.30;;;;;;;;;;21001524;28;20048;-57
2022/08/16 04:06:08;;;;;;;3.78;2.90;;;;;;;;;;21001430;28;20044;-56
2022/08/16 04:16:11;;;;;;;;;;;;;;;;;;21001444;28;20048;-57
2022/08/16 04:26:13;;;;;;;3.53;2.70;;;;;;;;;;20999155;28;19921;-55
2022/08/16 04:36:16;;;;;;;6.38;3.13;;;;;;;;;;20998396;28;20106;-56
2022/08/16 04:46:18;;;;;;;5.10;3.08;;;;;;;;;;20997418;28;20496;-56
2022/08/16 04:56:20;;;;;;;5.15;2.63;;;;;;;;;;20998432;28;20040;-55
2022/08/16 05:06:22;;;;;;;;;;;;;;;;;;20997844;28;20052;-55
2022/08/16 05:16:26;;;;;;;4.97;2.92;;;;;;;;;;20995895;28;19927;-57
2022/08/16 05:26:29;;;;;;;5.35;2.97;;;;;;;;;;20995257;28;20056;-57
2022/08/16 05:36:33;;;;;;;6.90;3.33;;;;;;;;;;20994847;28;20533;-57
2022/08/16 05:46:35;;;;;;;6.18;3.53;;;;;;;;;;20994753;28;20084;-56
2022/08/16 05:56:38;;;;;;;5.68;3.55;;;;;;;;;;20994095;28;20063;-56
2022/08/16 06:06:40;;;;;;;;;;;;;;;;;;20994348;28;20125;-56
2022/08/16 06:16:42;;;;;;;8.83;5.43;;;;;;;;;;20993785;28;19920;-57
2022/08/16 06:26:44;;;;;;;7.57;5.30;;;;;;;;;;21002329;28;20057;-57
2022/08/16 06:36:46;;;;;;;10.00;7.27;;;;;;;;;;21009096;28;20047;-56
2022/08/16 06:46:48;;;;;;;10.27;5.73;;;;;;;;;;21007277;28;20462;-59
2022/08/16 06:56:50;;;;;;;11.77;6.07;;;;;;;;;;21006968;28;20091;-57
2022/08/16 07:06:53;;;;;;;9.43;7.90;;;;;;;;;;21007132;28;20055;-56
2022/08/16 07:16:56;;;;;;;;;;;;;;;;;;21005783;28;20053;-56
2022/08/16 07:26:58;;;;;;;8.55;5.07;;;;;;;;;;21004668;28;19964;-56
2022/08/16 07:37:02;;;;;;;10.55;6.10;;;;;;;;;;21003763;28;20385;-57
2022/08/16 07:47:05;;;;;;;15.10;6.95;;;;;;;;;;21004583;28;20061;-58
2022/08/16 07:57:06;;;;;;;8.85;6.50;;;;;;;;;;21003797;28;20076;-57
2022/08/16 08:07:08;;;;;;;7.90;5.13;;;;;;;;;;21000210;28;20053;-56
2022/08/16 08:17:10;;;;;;;8.43;4.63;;;;;;;;;;21000545;28;20049;-55
2022/08/16 08:27:15;;;;;;;7.47;4.38;;;;;;;;;;20998132;28;20113;-56
2022/08/16 08:37:17;;;;;;;5.60;4.85;;;;;;;;;;20999422;28;20045;-57
2022/08/16 08:47:19;;;;;;;7.88;5.05;;;;;;;;;;20994911;28;20137;-57
2022/08/16 08:57:21;;;;;;;7.72;6.45;;;;;;;;;;20996991;28;20105;-57
2022/08/16 09:07:23;;;;;;;8.18;7.38;;;;;;;;;;20997422;28;20055;-57
2022/08/16 09:17:25;;;;;;;9.45;8.43;;;;;;;;;;20997062;28;20052;-59
2022/08/16 09:27:28;;;;;;;15.13;9.30;;;;;;;;;;20995006;28;20078;-57
2022/08/16 09:37:31;;;;;;;14.13;12.82;;;;;;;;;;20995210;28;20127;-55
2022/08/16 09:47:38;;;;;;;13.77;12.48;;;;;;;;;;20995319;28;20048;-57
2022/08/16 09:57:40;;;;;;;16.88;15.27;;;;;;;;;;21000090;28;20105;-55
2022/08/16 10:07:45;;;;;;;15.07;13.68;;;;;;;;;;21011021;28;20052;-58
2022/08/16 10:17:48;;;;;;;17.98;16.27;;;;;;;;;;21014047;28;20450;-56
2022/08/16 10:27:51;;;;;;;15.93;14.50;;;;;;;;;;21011841;28;20493;-59
2022/08/16 10:37:54;;;;;;;16.17;14.77;;;;;;;;;;21008682;28;20151;-56
2022/08/16 10:47:56;;;;;;;18.88;17.02;;;;;;;;;;21007436;28;20048;-56
2022/08/16 10:58:01;;;;;;;23.38;21.27;;;;;;;;;;21007182;28;20390;-57
2022/08/16 11:08:06;;;;;;;35.80;32.50;;;;;;;;;;21004792;28;20052;-57
2022/08/16 11:18:09;;;;;;;41.10;37.33;;;;;;;;;;21005654;28;20060;-54
2022/08/16 11:28:11;;;;;;;66.50;60.70;;;;;;;;;;21004262;28;20083;-57
2022/08/16 11:38:15;;;;;;;93.80;85.45;;;;;;;;;;21004056;28;20052;-56
2022/08/16 11:48:18;;;;;;;116.97;106.57;;;;;;;;;;21004809;28;20059;-58
2022/08/16 11:58:20;;;;;;;126.32;114.90;;;;;;;;;;21001561;28;20099;-57
2022/08/16 12:08:23;;;;;;;114.57;104.57;;;;;;;;;;21001314;28;20483;-56
2022/08/16 12:18:25;;;;;;;104.13;95.05;;;;;;;;;;20999219;28;20399;-57
2022/08/16 12:28:27;;;;;;;102.82;93.82;;;;;;;;;;20998960;28;20106;-57
2022/08/16 12:38:29;;;;;;;122.07;111.50;;;;;;;;;;20998475;28;20140;-56
2022/08/16 12:58:54;;;;;;;105.22;95.38;;;;;;;;;;20997037;28;20131;-57
2022/08/16 13:09:01;;;;;;;72.70;65.93;;;;;;;;;;20996835;28;20502;-57
2022/08/16 13:19:03;;;;;;;51.28;46.83;;;;;;;;;;20996738;28;20447;-56
2022/08/16 13:29:06;;;;;;;25.15;22.85;;;;;;;;;;20995911;28;20049;-56
2022/08/16 13:39:09;;;;;;;24.15;21.90;;;;;;;;;;20993520;28;20053;-58
2022/08/16 13:49:12;;;;;;;20.75;18.52;;;;;;;;;;20995054;28;20169;-58
2022/08/16 13:59:15;;;;;;;23.67;21.52;;;;;;;;;;20994499;28;20098;-56
2022/08/16 14:09:17;;;;;;;18.02;16.42;;;;;;;;;;20993971;28;20048;-55
2022/08/16 14:19:19;;;;;;;17.00;15.32;;;;;;;;;;20993645;28;20052;-59
2022/08/16 14:29:21;;;;;;;15.57;13.95;;;;;;;;;;20992629;28;20067;-56
2022/08/16 14:39:23;;;;;;;18.73;16.95;;;;;;;;;;20992459;28;20059;-54
2022/08/16 14:49:25;;;;;;;31.73;28.77;;;;;;;;;;21005314;28;20045;-59
2022/08/16 14:59:28;;;;;;;35.42;32.17;;;;;;;;;;21007264;28;20127;-57
2022/08/16 15:09:30;;;;;;;29.38;26.77;;;;;;;;;;21006911;28;20514;-57
2022/08/16 15:19:32;;;;;;;26.42;24.02;;;;;;;;;;21006250;28;20056;-56
2022/08/16 15:29:34;;;;;;;22.17;20.02;;;;;;;;;;21005055;28;20155;-58
2022/08/16 15:39:36;;;;;;;19.27;17.38;;;;;;;;;;21004848;28;20064;-59
2022/08/16 15:49:38;;;;;;;29.40;17.55;;;;;;;;;;21006346;28;20055;-57
2022/08/16 15:59:41;;;;;;;18.98;17.30;;;;;;;;;;21003092;28;20048;-57
2022/08/16 16:09:43;;;;;;;19.33;17.30;;;;;;;;;;21002781;28;20400;-58
2022/08/16 16:19:45;;;;;;;15.90;14.48;;;;;;;;;;21000458;28;20090;-60
2022/08/16 16:29:47;;;;;;;13.55;12.32;;;;;;;;;;21000107;28;20484;-58
2022/08/16 16:39:48;;;;;;;15.57;14.07;;;;;;;;;;20998328;28;20139;-57
2022/08/16 16:49:50;;;;;;;16.75;15.25;;;;;;;;;;20999216;28;20131;-57
2022/08/16 16:59:52;;;;;;;21.13;19.13;;;;;;;;;;20997023;28;20088;-57
2022/08/16 17:09:54;;;;;;;22.15;19.98;;;;;;;;;;20996273;28;20529;-58
2022/08/16 17:19:56;;;;;;;22.75;20.65;;;;;;;;;;20995519;28;20048;-58
2022/08/16 17:29:58;;;;;;;23.50;21.25;;;;;;;;;;20995792;28;20056;-56
2022/08/16 17:40:00;;;;;;;25.17;22.60;;;;;;;;;;20993857;28;20052;-57
2022/08/16 17:50:05;;;;;;;23.98;21.58;;;;;;;;;;20995494;28;20059;-56
2022/08/16 18:00:10;;;;;;;23.10;20.98;;;;;;;;;;20994116;28;20549;-57
2022/08/16 18:10:13;;;;;;;5.32;3.47;;;;;;;;;;20993867;28;20044;-58
2022/08/16 18:30:53;;;;;;;4.15;1.50;;;;;;;;;;20917526;28;20048;-58
2022/08/16 18:40:55;;;;;;;3.65;1.70;;;;;;;;;;20916228;28;20053;-57
2022/08/16 18:50:57;;;;;;;6.03;1.40;;;;;;;;;;20900287;28;20086;-57
2022/08/16 19:00:59;;;;;;;2.00;1.10;;;;;;;;;;20961135;28;20131;-56
2022/08/16 19:11:01;;;;;;;3.85;2.88;;;;;;;;;;21005875;28;20048;-58
2022/08/16 19:21:04;;;;;;;2.30;1.00;;;;;;;;;;21005686;28;20381;-58
2022/08/16 19:31:09;;;;;;;3.45;1.83;;;;;;;;;;21006720;28;20052;-56
2022/08/16 19:41:11;;;;;;;4.95;1.42;;;;;;;;;;21004556;28;20454;-55
2022/08/16 19:51:15;;;;;;;2.85;1.00;;;;;;;;;;21003118;28;20121;-56
2022/08/16 20:01:17;;;;;;;3.00;1.15;;;;;;;;;;21001986;28;20411;-58
2022/08/16 20:11:19;;;;;;;4.35;1.50;;;;;;;;;;21000944;28;20412;-55
2022/08/16 20:21:21;;;;;;;3.25;1.13;;;;;;;;;;21000534;28;20135;-56
2022/08/16 20:31:24;;;;;;;3.75;1.00;;;;;;;;;;21000101;28;20051;-56
2022/08/16 20:41:26;;;;;;;1.98;0.98;;;;;;;;;;20997795;28;20102;-57
2022/08/16 20:51:28;;;;;;;3.50;0.93;;;;;;;;;;20998450;28;20080;-55
2022/08/16 21:01:30;;;;;;;2.60;0.88;;;;;;;;;;20997256;28;20066;-59
2022/08/16 21:11:32;;;;;;;2.38;0.90;;;;;;;;;;20997245;28;20059;-56
2022/08/16 21:21:34;;;;;;;2.75;1.00;;;;;;;;;;20996851;28;20052;-57
2022/08/16 21:31:39;;;;;;;1.85;0.80;;;;;;;;;;20997140;28;20072;-58
2022/08/16 21:41:41;;;;;;;3.53;1.35;;;;;;;;;;20995376;28;20106;-59
2022/08/16 21:51:43;;;;;;;;;;;;;;;;;;20996005;28;20508;-60
2022/08/16 22:01:45;;;;;;;2.33;0.83;;;;;;;;;;20996553;28;19921;-56
2022/08/16 22:11:48;;;;;;;1.90;1.15;;;;;;;;;;20995154;28;20052;-57
2022/08/16 22:21:50;;;;;;;2.15;0.98;;;;;;;;;;20994330;28;20131;-57
2022/08/16 22:31:52;;;;;;;;;;;;;;;;;;20995269;28;20045;-59
2022/08/16 22:41:55;;;;;;;3.57;1.00;;;;;;;;;;20994011;28;19920;-57
2022/08/16 22:52:08;;;;;;;2.45;0.82;;;;;;;;;;20993333;28;20044;-57
2022/08/16 23:02:10;;;;;;;1.58;0.70;;;;;;;;;;20990870;28;20049;-55
2022/08/16 23:12:14;;;;;;;2.20;0.98;;;;;;;;;;21006068;28;20466;-55
2022/08/16 23:22:16;;;;;;;1.33;0.60;;;;;;;;;;21005879;28;20052;-57
2022/08/16 23:32:19;;;;;;;1.77;0.70;;;;;;;;;;21005785;28;20055;-56
2022/08/16 23:42:21;;;;;;;1.58;0.70;;;;;;;;;;21003878;28;20157;-57
2022/08/16 23:52:23;;;;;;;1.98;0.70;;;;;;;;;;21003499;28;20060;-56
